sensor_id;sensor_type;location;lat;lon;timestamp;pressure;altitude;pressure_sealevel;temperature;humidity
11971;BME280;6045;42.682;23.294;2022-08-21T00:01:33;94122.16;;;22.05;86.19
11971;BME280;6045;42.682;23.294;2022-08-21T00:04:04;94105.22;;;22.08;85.56
11971;BME280;6045;42.682;23.294;2022-08-21T00:06:32;94108.72;;;22.00;85.49
11971;BME280;6045;42.682;23.294;2022-08-21T00:08:59;94116.66;;;21.88;86.13
11971;BME280;6045;42.682;23.294;2022-08-21T00:11:26;94117.63;;;21.92;85.30
11971;BME280;6045;42.682;23.294;2022-08-21T00:13:55;94106.75;;;21.92;85.48
11971;BME280;6045;42.682;23.294;2022-08-21T00:16:21;94111.72;;;21.90;86.22
11971;BME280;6045;42.682;23.294;2022-08-21T00:18:49;94105.50;;;21.98;85.24
11971;BME280;6045;42.682;23.294;2022-08-21T00:21:16;94093.50;;;21.99;85.86
11971;BME280;6045;42.682;23.294;2022-08-21T00:23:43;94090.31;;;22.05;85.45
11971;BME280;6045;42.682;23.294;2022-08-21T00:26:10;94091.59;;;21.99;85.67
11971;BME280;6045;42.682;23.294;2022-08-21T00:28:37;94082.97;;;21.83;86.17
11971;BME280;6045;42.682;23.294;2022-08-21T00:31:05;94082.28;;;22.00;86.18
11971;BME280;6045;42.682;23.294;2022-08-21T00:33:32;94083.44;;;22.08;85.01
11971;BME280;6045;42.682;23.294;2022-08-21T00:35:59;94081.00;;;21.98;85.63
11971;BME280;6045;42.682;23.294;2022-08-21T00:38:26;94096.44;;;22.11;84.95
11971;BME280;6045;42.682;23.294;2022-08-21T00:40:57;94086.03;;;22.13;84.02
11971;BME280;6045;42.682;23.294;2022-08-21T00:43:28;94094.34;;;22.16;83.56
11971;BME280;6045;42.682;23.294;2022-08-21T00:45:55;94098.81;;;22.04;83.29
11971;BME280;6045;42.682;23.294;2022-08-21T00:48:24;94101.03;;;22.02;84.65
11971;BME280;6045;42.682;23.294;2022-08-21T00:50:55;94096.72;;;22.09;83.94
11971;BME280;6045;42.682;23.294;2022-08-21T00:53:23;94091.53;;;21.91;83.26
11971;BME280;6045;42.682;23.294;2022-08-21T00:55:51;94097.41;;;21.84;84.46
11971;BME280;6045;42.682;23.294;2022-08-21T00:58:18;94094.25;;;21.91;84.18
11971;BME280;6045;42.682;23.294;2022-08-21T01:00:47;94083.34;;;21.91;84.84
11971;BME280;6045;42.682;23.294;2022-08-21T01:03:17;94077.03;;;22.04;84.47
11971;BME280;6045;42.682;23.294;2022-08-21T01:05:46;94083.34;;;21.91;85.09
11971;BME280;6045;42.682;23.294;2022-08-21T01:08:16;94082.19;;;21.83;85.03
11971;BME280;6045;42.682;23.294;2022-08-21T01:10:44;94081.31;;;21.96;84.85
11971;BME280;6045;42.682;23.294;2022-08-21T01:13:11;94081.81;;;21.98;84.68
11971;BME280;6045;42.682;23.294;2022-08-21T01:15:43;94070.41;;;21.88;84.94
11971;BME280;6045;42.682;23.294;2022-08-21T01:18:11;94070.91;;;21.67;86.12
11971;BME280;6045;42.682;23.294;2022-08-21T01:20:43;94068.88;;;21.51;87.23
11971;BME280;6045;42.682;23.294;2022-08-21T01:23:12;94073.59;;;21.37;88.06
11971;BME280;6045;42.682;23.294;2022-08-21T01:25:38;94067.34;;;21.36;88.29
11971;BME280;6045;42.682;23.294;2022-08-21T01:28:09;94059.38;;;21.62;87.43
11971;BME280;6045;42.682;23.294;2022-08-21T01:30:39;94062.63;;;21.81;85.93
11971;BME280;6045;42.682;23.294;2022-08-21T01:33:06;94059.31;;;21.84;84.96
11971;BME280;6045;42.682;23.294;2022-08-21T01:35:33;94062.09;;;21.93;84.53
11971;BME280;6045;42.682;23.294;2022-08-21T01:38:00;94067.50;;;21.84;84.39
11971;BME280;6045;42.682;23.294;2022-08-21T01:40:29;94064.66;;;21.98;84.49
11971;BME280;6045;42.682;23.294;2022-08-21T01:42:56;94069.38;;;21.83;84.77
11971;BME280;6045;42.682;23.294;2022-08-21T01:45:23;94071.13;;;21.79;84.17
11971;BME280;6045;42.682;23.294;2022-08-21T01:47:50;94074.81;;;21.83;84.73
11971;BME280;6045;42.682;23.294;2022-08-21T01:50:18;94078.09;;;21.86;84.30
11971;BME280;6045;42.682;23.294;2022-08-21T01:52:46;94077.81;;;21.73;85.27
11971;BME280;6045;42.682;23.294;2022-08-21T01:55:13;94080.19;;;21.44;86.18
11971;BME280;6045;42.682;23.294;2022-08-21T01:57:42;94070.44;;;21.21;88.60
11971;BME280;6045;42.682;23.294;2022-08-21T02:00:13;94064.19;;;21.43;87.32
11971;BME280;6045;42.682;23.294;2022-08-21T02:02:42;94080.69;;;21.46;87.12
11971;BME280;6045;42.682;23.294;2022-08-21T02:05:10;94088.09;;;21.54;86.81
11971;BME280;6045;42.682;23.294;2022-08-21T02:07:39;94092.38;;;21.69;86.28
11971;BME280;6045;42.682;23.294;2022-08-21T02:10:08;94086.69;;;21.57;86.10
11971;BME280;6045;42.682;23.294;2022-08-21T02:12:35;94101.38;;;21.56;86.36
11971;BME280;6045;42.682;23.294;2022-08-21T02:15:05;94083.28;;;21.51;86.42
11971;BME280;6045;42.682;23.294;2022-08-21T02:17:38;94091.69;;;21.41;87.23
11971;BME280;6045;42.682;23.294;2022-08-21T02:20:06;94092.41;;;21.55;86.53
11971;BME280;6045;42.682;23.294;2022-08-21T02:22:33;94088.84;;;21.68;85.92
11971;BME280;6045;42.682;23.294;2022-08-21T02:25:00;94085.84;;;21.78;85.55
11971;BME280;6045;42.682;23.294;2022-08-21T02:27:27;94086.34;;;21.80;85.28
11971;BME280;6045;42.682;23.294;2022-08-21T02:29:55;94097.66;;;21.74;85.35
11971;BME280;6045;42.682;23.294;2022-08-21T02:32:24;94102.44;;;21.68;85.04
11971;BME280;6045;42.682;23.294;2022-08-21T02:34:51;94098.47;;;21.74;85.52
11971;BME280;6045;42.682;23.294;2022-08-21T02:37:18;94100.94;;;21.85;84.62
11971;BME280;6045;42.682;23.294;2022-08-21T02:39:45;94105.03;;;21.73;84.54
11971;BME280;6045;42.682;23.294;2022-08-21T02:42:11;94097.16;;;21.72;84.23
11971;BME280;6045;42.682;23.294;2022-08-21T02:44:38;94100.66;;;21.64;84.23
11971;BME280;6045;42.682;23.294;2022-08-21T02:47:05;94102.44;;;21.68;85.04
11971;BME280;6045;42.682;23.294;2022-08-21T02:49:34;94097.16;;;21.72;84.74
11971;BME280;6045;42.682;23.294;2022-08-21T02:52:00;94096.53;;;21.75;84.33
11971;BME280;6045;42.682;23.294;2022-08-21T02:54:27;94091.28;;;21.78;84.35
11971;BME280;6045;42.682;23.294;2022-08-21T02:56:54;94090.69;;;21.59;84.75
11971;BME280;6045;42.682;23.294;2022-08-21T02:59:21;94094.28;;;21.46;85.89
11971;BME280;6045;42.682;23.294;2022-08-21T03:01:48;94091.94;;;21.53;85.58
11971;BME280;6045;42.682;23.294;2022-08-21T03:04:17;94094.13;;;21.43;85.95
11971;BME280;6045;42.682;23.294;2022-08-21T03:06:45;94104.91;;;21.34;87.92
11971;BME280;6045;42.682;23.294;2022-08-21T03:09:11;94107.22;;;21.41;87.29
11971;BME280;6045;42.682;23.294;2022-08-21T03:11:38;94095.91;;;21.47;86.98
11971;BME280;6045;42.682;23.294;2022-08-21T03:14:05;94094.66;;;21.53;86.65
11971;BME280;6045;42.682;23.294;2022-08-21T03:16:32;94088.00;;;21.59;85.71
11971;BME280;6045;42.682;23.294;2022-08-21T03:18:59;94094.28;;;21.68;85.49
11971;BME280;6045;42.682;23.294;2022-08-21T03:21:26;94099.22;;;21.66;86.08
11971;BME280;6045;42.682;23.294;2022-08-21T03:23:54;94103.06;;;21.65;86.06
11971;BME280;6045;42.682;23.294;2022-08-21T03:26:21;94097.44;;;21.62;85.96
11971;BME280;6045;42.682;23.294;2022-08-21T03:28:49;94099.53;;;21.65;85.18
11971;BME280;6045;42.682;23.294;2022-08-21T03:31:16;94095.09;;;21.69;85.47
11971;BME280;6045;42.682;23.294;2022-08-21T03:33:43;94087.41;;;21.71;85.79
11971;BME280;6045;42.682;23.294;2022-08-21T03:36:10;94084.84;;;21.74;85.25
11971;BME280;6045;42.682;23.294;2022-08-21T03:38:37;94088.06;;;21.76;85.20
11971;BME280;6045;42.682;23.294;2022-08-21T03:41:07;94088.56;;;21.78;85.09
11971;BME280;6045;42.682;23.294;2022-08-21T03:43:35;94090.50;;;21.78;85.04
11971;BME280;6045;42.682;23.294;2022-08-21T03:46:05;94090.88;;;21.63;85.82
11971;BME280;6045;42.682;23.294;2022-08-21T03:48:33;94092.41;;;21.55;86.03
11971;BME280;6045;42.682;23.294;2022-08-21T03:51:01;94091.06;;;21.44;86.05
11971;BME280;6045;42.682;23.294;2022-08-21T03:53:28;94098.81;;;21.29;86.79
11971;BME280;6045;42.682;23.294;2022-08-21T03:55:55;94103.81;;;21.35;87.23
11971;BME280;6045;42.682;23.294;2022-08-21T03:58:26;94108.00;;;21.41;86.13
11971;BME280;6045;42.682;23.294;2022-08-21T04:03:20;94112.88;;;21.53;86.15
11971;BME280;6045;42.682;23.294;2022-08-21T04:05:47;94108.75;;;21.33;86.77
11971;BME280;6045;42.682;23.294;2022-08-21T04:08:15;94107.03;;;21.37;86.72
11971;BME280;6045;42.682;23.294;2022-08-21T04:10:45;94121.09;;;21.39;85.83
11971;BME280;6045;42.682;23.294;2022-08-21T04:13:12;94120.50;;;21.42;85.73
11971;BME280;6045;42.682;23.294;2022-08-21T04:15:41;94125.75;;;21.39;85.87
11971;BME280;6045;42.682;23.294;2022-08-21T04:18:09;94118.22;;;21.36;85.87
11971;BME280;6045;42.682;23.294;2022-08-21T04:20:36;94109.75;;;21.37;85.72
11971;BME280;6045;42.682;23.294;2022-08-21T04:23:03;94103.56;;;21.45;85.16
11971;BME280;6045;42.682;23.294;2022-08-21T04:25:30;94107.75;;;21.51;84.26
11971;BME280;6045;42.682;23.294;2022-08-21T04:27:57;94117.34;;;21.49;84.28
11971;BME280;6045;42.682;23.294;2022-08-21T04:30:24;94108.75;;;21.55;83.46
11971;BME280;6045;42.682;23.294;2022-08-21T04:32:52;94105.91;;;21.60;83.25
11971;BME280;6045;42.682;23.294;2022-08-21T04:35:21;94113.19;;;21.51;84.35
11971;BME280;6045;42.682;23.294;2022-08-21T04:37:48;94118.53;;;21.56;84.08
11971;BME280;6045;42.682;23.294;2022-08-21T04:40:17;94112.25;;;21.56;82.99
11971;BME280;6045;42.682;23.294;2022-08-21T04:42:46;94107.03;;;21.37;83.54
11971;BME280;6045;42.682;23.294;2022-08-21T04:45:19;94108.00;;;21.41;87.25
11971;BME280;6045;42.682;23.294;2022-08-21T04:47:49;94109.13;;;21.85;86.31
11971;BME280;6045;42.682;23.294;2022-08-21T04:50:18;94109.78;;;22.21;83.77
11971;BME280;6045;42.682;23.294;2022-08-21T04:52:48;94106.34;;;22.46;82.01
11971;BME280;6045;42.682;23.294;2022-08-21T04:55:16;94106.44;;;22.80;80.44
11971;BME280;6045;42.682;23.294;2022-08-21T04:57:44;94101.81;;;23.24;78.18
11971;BME280;6045;42.682;23.294;2022-08-21T05:00:13;94099.75;;;23.55;76.57
11971;BME280;6045;42.682;23.294;2022-08-21T05:02:40;94098.25;;;23.83;75.19
11971;BME280;6045;42.682;23.294;2022-08-21T05:05:08;94112.69;;;24.09;72.83
11971;BME280;6045;42.682;23.294;2022-08-21T05:07:37;94106.81;;;24.28;71.88
11971;BME280;6045;42.682;23.294;2022-08-21T05:10:05;94118.16;;;24.38;70.54
11971;BME280;6045;42.682;23.294;2022-08-21T05:12:33;94120.34;;;24.16;71.34
11971;BME280;6045;42.682;23.294;2022-08-21T05:15:01;94118.47;;;24.45;72.61
11971;BME280;6045;42.682;23.294;2022-08-21T05:17:28;94115.09;;;24.48;71.91
11971;BME280;6045;42.682;23.294;2022-08-21T05:19:54;94125.06;;;24.82;71.10
11971;BME280;6045;42.682;23.294;2022-08-21T05:22:22;94119.56;;;25.11;69.33
11971;BME280;6045;42.682;23.294;2022-08-21T05:24:52;94115.97;;;25.40;67.54
11971;BME280;6045;42.682;23.294;2022-08-21T05:27:19;94123.19;;;25.65;66.65
11971;BME280;6045;42.682;23.294;2022-08-21T05:29:45;94122.47;;;25.89;65.99
11971;BME280;6045;42.682;23.294;2022-08-21T05:32:13;94117.25;;;25.96;65.24
11971;BME280;6045;42.682;23.294;2022-08-21T05:34:40;94114.84;;;25.95;65.45
11971;BME280;6045;42.682;23.294;2022-08-21T05:37:07;94114.44;;;26.05;63.81
11971;BME280;6045;42.682;23.294;2022-08-21T05:39:36;94105.59;;;26.32;63.88
11971;BME280;6045;42.682;23.294;2022-08-21T05:42:05;94105.84;;;26.63;62.40
11971;BME280;6045;42.682;23.294;2022-08-21T05:44:32;94107.22;;;26.69;62.26
11971;BME280;6045;42.682;23.294;2022-08-21T05:47:03;94093.50;;;26.69;61.58
11971;BME280;6045;42.682;23.294;2022-08-21T05:49:30;94098.91;;;26.78;61.28
11971;BME280;6045;42.682;23.294;2022-08-21T05:51:57;94096.59;;;26.68;61.71
11971;BME280;6045;42.682;23.294;2022-08-21T05:54:24;94100.47;;;26.67;61.53
11971;BME280;6045;42.682;23.294;2022-08-21T05:56:51;94097.06;;;26.70;61.85
11971;BME280;6045;42.682;23.294;2022-08-21T05:59:19;94097.50;;;26.72;61.70
11971;BME280;6045;42.682;23.294;2022-08-21T06:01:46;94101.50;;;26.74;61.83
11971;BME280;6045;42.682;23.294;2022-08-21T06:04:14;94108.63;;;26.75;61.56
11971;BME280;6045;42.682;23.294;2022-08-21T06:06:41;94102.22;;;26.83;61.40
11971;BME280;6045;42.682;23.294;2022-08-21T06:09:08;94097.44;;;26.80;61.54
11971;BME280;6045;42.682;23.294;2022-08-21T06:11:35;94101.09;;;26.84;61.69
11971;BME280;6045;42.682;23.294;2022-08-21T06:14:02;94099.47;;;26.95;61.54
11971;BME280;6045;42.682;23.294;2022-08-21T06:16:33;94105.41;;;26.97;61.88
11971;BME280;6045;42.682;23.294;2022-08-21T06:18:59;94095.13;;;26.94;61.75
11971;BME280;6045;42.682;23.294;2022-08-21T06:21:26;94100.03;;;26.89;61.41
11971;BME280;6045;42.682;23.294;2022-08-21T06:23:56;94106.13;;;26.82;61.65
11971;BME280;6045;42.682;23.294;2022-08-21T06:26:23;94101.41;;;26.71;62.47
11971;BME280;6045;42.682;23.294;2022-08-21T06:28:50;94085.16;;;26.54;63.34
11971;BME280;6045;42.682;23.294;2022-08-21T06:31:19;94101.03;;;26.36;64.08
11971;BME280;6045;42.682;23.294;2022-08-21T06:33:47;94096.47;;;26.40;64.42
11971;BME280;6045;42.682;23.294;2022-08-21T06:36:15;94098.88;;;26.41;64.37
11971;BME280;6045;42.682;23.294;2022-08-21T06:38:45;94102.97;;;26.47;64.14
11971;BME280;6045;42.682;23.294;2022-08-21T06:41:12;94108.38;;;26.56;64.02
11971;BME280;6045;42.682;23.294;2022-08-21T06:43:38;94103.44;;;26.74;63.77
11971;BME280;6045;42.682;23.294;2022-08-21T06:46:06;94108.63;;;26.87;63.41
11971;BME280;6045;42.682;23.294;2022-08-21T06:48:33;94104.50;;;26.93;62.67
11971;BME280;6045;42.682;23.294;2022-08-21T06:51:01;94104.34;;;27.02;62.35
11971;BME280;6045;42.682;23.294;2022-08-21T06:53:28;94099.31;;;27.04;61.95
11971;BME280;6045;42.682;23.294;2022-08-21T06:55:55;94106.06;;;27.06;62.12
11971;BME280;6045;42.682;23.294;2022-08-21T06:58:22;94111.31;;;27.11;61.84
11971;BME280;6045;42.682;23.294;2022-08-21T07:00:50;94117.53;;;27.08;61.81
11971;BME280;6045;42.682;23.294;2022-08-21T07:03:24;94110.78;;;27.06;61.54
11971;BME280;6045;42.682;23.294;2022-08-21T07:05:52;94114.28;;;27.06;61.29
11971;BME280;6045;42.682;23.294;2022-08-21T07:08:21;94116.59;;;27.04;61.76
11971;BME280;6045;42.682;23.294;2022-08-21T07:10:48;94119.56;;;26.99;61.55
11971;BME280;6045;42.682;23.294;2022-08-21T07:13:15;94121.53;;;26.99;61.53
11971;BME280;6045;42.682;23.294;2022-08-21T07:15:43;94112.13;;;27.00;61.30
11971;BME280;6045;42.682;23.294;2022-08-21T07:18:10;94117.38;;;27.17;61.07
11971;BME280;6045;42.682;23.294;2022-08-21T07:20:37;94119.78;;;27.19;60.80
11971;BME280;6045;42.682;23.294;2022-08-21T07:23:06;94121.25;;;27.16;61.13
11971;BME280;6045;42.682;23.294;2022-08-21T07:25:35;94117.25;;;27.13;61.73
11971;BME280;6045;42.682;23.294;2022-08-21T07:28:03;94115.00;;;27.16;61.00
11971;BME280;6045;42.682;23.294;2022-08-21T07:30:30;94107.44;;;27.25;60.92
11971;BME280;6045;42.682;23.294;2022-08-21T07:32:57;94107.41;;;27.76;59.46
11971;BME280;6045;42.682;23.294;2022-08-21T07:35:24;94103.41;;;28.61;56.22
11971;BME280;6045;42.682;23.294;2022-08-21T07:37:53;94093.81;;;28.86;55.87
11971;BME280;6045;42.682;23.294;2022-08-21T07:40:20;94092.81;;;28.78;54.71
11971;BME280;6045;42.682;23.294;2022-08-21T07:42:49;94099.22;;;28.67;55.66
11971;BME280;6045;42.682;23.294;2022-08-21T07:45:18;94095.22;;;28.48;56.52
11971;BME280;6045;42.682;23.294;2022-08-21T07:47:46;94095.03;;;28.41;56.69
11971;BME280;6045;42.682;23.294;2022-08-21T07:50:14;94095.28;;;28.36;56.34
11971;BME280;6045;42.682;23.294;2022-08-21T07:52:42;94089.09;;;28.24;56.52
11971;BME280;6045;42.682;23.294;2022-08-21T07:55:11;94100.41;;;28.07;57.48
11971;BME280;6045;42.682;23.294;2022-08-21T07:57:39;94087.50;;;27.95;58.00
11971;BME280;6045;42.682;23.294;2022-08-21T08:00:10;94093.13;;;27.71;58.85
11971;BME280;6045;42.682;23.294;2022-08-21T08:02:38;94099.50;;;27.75;58.47
11971;BME280;6045;42.682;23.294;2022-08-21T08:05:07;94097.13;;;28.01;57.67
11971;BME280;6045;42.682;23.294;2022-08-21T08:07:34;94092.66;;;28.40;55.76
11971;BME280;6045;42.682;23.294;2022-08-21T08:10:03;94101.16;;;28.51;56.22
11971;BME280;6045;42.682;23.294;2022-08-21T08:12:30;94086.72;;;28.54;55.93
11971;BME280;6045;42.682;23.294;2022-08-21T08:14:58;94091.84;;;28.55;56.43
11971;BME280;6045;42.682;23.294;2022-08-21T08:17:26;94101.59;;;28.53;55.67
11971;BME280;6045;42.682;23.294;2022-08-21T08:19:53;94087.59;;;28.58;55.53
11971;BME280;6045;42.682;23.294;2022-08-21T08:22:22;94083.91;;;28.66;55.74
11971;BME280;6045;42.682;23.294;2022-08-21T08:24:50;94087.13;;;29.37;54.21
11971;BME280;6045;42.682;23.294;2022-08-21T08:27:17;94092.81;;;30.02;51.52
11971;BME280;6045;42.682;23.294;2022-08-21T08:29:45;94091.53;;;30.60;49.84
11971;BME280;6045;42.682;23.294;2022-08-21T08:32:12;94099.72;;;30.98;48.56
11971;BME280;6045;42.682;23.294;2022-08-21T08:34:40;94088.66;;;30.98;48.19
11971;BME280;6045;42.682;23.294;2022-08-21T08:37:12;94091.59;;;30.86;48.68
11971;BME280;6045;42.682;23.294;2022-08-21T08:39:39;94098.19;;;30.56;49.40
11971;BME280;6045;42.682;23.294;2022-08-21T08:42:09;94100.34;;;30.43;49.50
11971;BME280;6045;42.682;23.294;2022-08-21T08:44:37;94094.72;;;29.98;50.06
11971;BME280;6045;42.682;23.294;2022-08-21T08:47:05;94099.66;;;29.89;50.55
11971;BME280;6045;42.682;23.294;2022-08-21T08:49:36;94106.34;;;29.88;50.58
11971;BME280;6045;42.682;23.294;2022-08-21T08:52:20;94094.88;;;29.86;49.84
11971;BME280;6045;42.682;23.294;2022-08-21T08:54:51;94091.53;;;29.96;50.42
11971;BME280;6045;42.682;23.294;2022-08-21T08:57:24;94089.91;;;30.14;49.55
11971;BME280;6045;42.682;23.294;2022-08-21T08:59:55;94082.31;;;30.49;48.99
11971;BME280;6045;42.682;23.294;2022-08-21T09:02:23;94068.19;;;30.99;48.95
11971;BME280;6045;42.682;23.294;2022-08-21T09:04:53;94065.16;;;31.38;47.92
11971;BME280;6045;42.682;23.294;2022-08-21T09:07:28;94066.16;;;32.15;44.76
11971;BME280;6045;42.682;23.294;2022-08-21T09:10:07;94070.16;;;32.58;42.61
11971;BME280;6045;42.682;23.294;2022-08-21T09:12:47;94066.50;;;31.77;43.01
11971;BME280;6045;42.682;23.294;2022-08-21T09:15:22;94066.53;;;30.08;46.93
11971;BME280;6045;42.682;23.294;2022-08-21T09:18:07;94059.63;;;28.87;48.90
11971;BME280;6045;42.682;23.294;2022-08-21T09:20:41;94065.25;;;29.25;49.30
11971;BME280;6045;42.682;23.294;2022-08-21T09:23:22;94062.81;;;29.39;50.17
11971;BME280;6045;42.682;23.294;2022-08-21T09:26:02;94058.13;;;29.24;48.45
11971;BME280;6045;42.682;23.294;2022-08-21T09:28:33;94055.47;;;29.28;49.91
11971;BME280;6045;42.682;23.294;2022-08-21T09:31:00;94047.94;;;29.09;48.97
11971;BME280;6045;42.682;23.294;2022-08-21T09:33:29;94046.25;;;29.97;48.17
11971;BME280;6045;42.682;23.294;2022-08-21T09:35:59;94047.41;;;30.86;45.60
11971;BME280;6045;42.682;23.294;2022-08-21T09:38:31;94051.88;;;30.68;47.24
11971;BME280;6045;42.682;23.294;2022-08-21T09:41:02;94046.41;;;29.85;46.85
11971;BME280;6045;42.682;23.294;2022-08-21T09:43:29;94051.84;;;29.08;48.16
11971;BME280;6045;42.682;23.294;2022-08-21T09:46:09;94041.53;;;29.21;48.02
11971;BME280;6045;42.682;23.294;2022-08-21T09:48:42;94036.31;;;29.00;50.09
11971;BME280;6045;42.682;23.294;2022-08-21T09:51:11;94046.19;;;28.66;51.14
11971;BME280;6045;42.682;23.294;2022-08-21T09:53:58;94035.78;;;28.60;50.16
11971;BME280;6045;42.682;23.294;2022-08-21T09:56:29;94037.47;;;27.74;52.11
11971;BME280;6045;42.682;23.294;2022-08-21T09:59:17;94030.06;;;26.95;54.85
11971;BME280;6045;42.682;23.294;2022-08-21T10:01:47;94035.47;;;26.55;55.67
11971;BME280;6045;42.682;23.294;2022-08-21T10:04:14;94025.44;;;26.35;56.50
11971;BME280;6045;42.682;23.294;2022-08-21T10:06:41;94024.06;;;26.41;56.93
11971;BME280;6045;42.682;23.294;2022-08-21T10:09:12;94028.63;;;26.37;57.43
11971;BME280;6045;42.682;23.294;2022-08-21T10:11:40;94025.75;;;26.45;57.67
11971;BME280;6045;42.682;23.294;2022-08-21T10:14:16;94021.22;;;26.37;56.72
11971;BME280;6045;42.682;23.294;2022-08-21T10:16:56;94019.69;;;26.52;57.51
11971;BME280;6045;42.682;23.294;2022-08-21T10:19:29;94013.53;;;26.43;55.71
11971;BME280;6045;42.682;23.294;2022-08-21T10:22:10;94009.91;;;26.39;55.41
11971;BME280;6045;42.682;23.294;2022-08-21T10:24:51;94006.56;;;26.58;56.04
11971;BME280;6045;42.682;23.294;2022-08-21T10:27:28;94011.16;;;27.73;55.76
11971;BME280;6045;42.682;23.294;2022-08-21T10:30:03;94007.78;;;28.89;51.86
11971;BME280;6045;42.682;23.294;2022-08-21T10:35:39;93993.78;;;28.78;50.91
11971;BME280;6045;42.682;23.294;2022-08-21T10:41:12;93992.66;;;28.98;48.84
11971;BME280;6045;42.682;23.294;2022-08-21T10:43:55;93999.47;;;29.39;49.71
11971;BME280;6045;42.682;23.294;2022-08-21T10:46:45;93995.38;;;30.36;47.65
11971;BME280;6045;42.682;23.294;2022-08-21T10:49:22;93987.94;;;31.19;44.28
11971;BME280;6045;42.682;23.294;2022-08-21T10:51:56;93991.53;;;31.82;44.04
11971;BME280;6045;42.682;23.294;2022-08-21T10:54:35;93985.81;;;31.68;43.58
11971;BME280;6045;42.682;23.294;2022-08-21T10:57:11;93980.59;;;31.30;43.99
11971;BME280;6045;42.682;23.294;2022-08-21T10:59:43;93973.34;;;30.88;46.25
11971;BME280;6045;42.682;23.294;2022-08-21T11:02:16;93968.66;;;31.52;44.25
11971;BME280;6045;42.682;23.294;2022-08-21T11:04:52;93977.19;;;31.73;43.10
11971;BME280;6045;42.682;23.294;2022-08-21T11:07:26;93973.84;;;30.97;45.33
11971;BME280;6045;42.682;23.294;2022-08-21T11:09:59;93964.56;;;31.42;44.44
11971;BME280;6045;42.682;23.294;2022-08-21T11:12:35;93963.34;;;32.06;42.97
11971;BME280;6045;42.682;23.294;2022-08-21T11:15:26;93945.28;;;32.19;44.19
11971;BME280;6045;42.682;23.294;2022-08-21T11:18:01;93949.06;;;32.48;41.94
11971;BME280;6045;42.682;23.294;2022-08-21T11:20:34;93947.03;;;32.38;42.72
11971;BME280;6045;42.682;23.294;2022-08-21T11:23:10;93949.75;;;32.34;43.46
11971;BME280;6045;42.682;23.294;2022-08-21T11:25:41;93953.34;;;32.38;43.22
11971;BME280;6045;42.682;23.294;2022-08-21T11:28:16;93951.91;;;32.11;43.97
11971;BME280;6045;42.682;23.294;2022-08-21T11:30:51;93951.84;;;32.01;43.68
11971;BME280;6045;42.682;23.294;2022-08-21T11:33:30;93949.75;;;31.94;43.86
11971;BME280;6045;42.682;23.294;2022-08-21T11:36:07;93949.84;;;32.49;44.28
11971;BME280;6045;42.682;23.294;2022-08-21T11:38:40;93947.13;;;33.06;42.85
11971;BME280;6045;42.682;23.294;2022-08-21T11:41:23;93945.66;;;33.34;41.33
11971;BME280;6045;42.682;23.294;2022-08-21T11:44:00;93939.03;;;32.84;45.28
11971;BME280;6045;42.682;23.294;2022-08-21T11:46:35;93937.44;;;32.79;42.14
11971;BME280;6045;42.682;23.294;2022-08-21T11:49:22;93943.91;;;32.47;42.46
11971;BME280;6045;42.682;23.294;2022-08-21T11:51:56;93948.94;;;31.90;41.78
11971;BME280;6045;42.682;23.294;2022-08-21T11:54:36;93943.91;;;31.33;43.94
11971;BME280;6045;42.682;23.294;2022-08-21T11:57:08;93931.50;;;30.11;47.06
11971;BME280;6045;42.682;23.294;2022-08-21T11:59:45;93941.56;;;29.58;47.36
11971;BME280;6045;42.682;23.294;2022-08-21T12:02:17;93939.22;;;29.38;48.79
11971;BME280;6045;42.682;23.294;2022-08-21T12:04:50;93940.50;;;29.05;49.24
11971;BME280;6045;42.682;23.294;2022-08-21T12:07:32;93933.25;;;28.78;50.52
11971;BME280;6045;42.682;23.294;2022-08-21T12:10:00;93927.09;;;28.66;51.02
11971;BME280;6045;42.682;23.294;2022-08-21T12:12:30;93920.06;;;28.68;51.22
11971;BME280;6045;42.682;23.294;2022-08-21T12:15:23;93916.19;;;28.54;52.05
11971;BME280;6045;42.682;23.294;2022-08-21T12:17:57;93925.94;;;28.51;53.97
11971;BME280;6045;42.682;23.294;2022-08-21T12:20:36;93925.81;;;28.28;52.24
11971;BME280;6045;42.682;23.294;2022-08-21T12:23:18;93931.16;;;27.90;53.04
11971;BME280;6045;42.682;23.294;2022-08-21T12:25:47;93925.81;;;27.66;54.25
11971;BME280;6045;42.682;23.294;2022-08-21T12:28:26;93928.97;;;27.37;54.20
11971;BME280;6045;42.682;23.294;2022-08-21T12:30:55;93935.38;;;27.13;54.49
11971;BME280;6045;42.682;23.294;2022-08-21T12:33:25;93929.13;;;27.00;54.97
11971;BME280;6045;42.682;23.294;2022-08-21T12:36:02;93926.63;;;26.95;56.32
11971;BME280;6045;42.682;23.294;2022-08-21T12:38:34;93934.03;;;26.95;57.33
11971;BME280;6045;42.682;23.294;2022-08-21T12:41:16;93923.13;;;26.83;56.04
11971;BME280;6045;42.682;23.294;2022-08-21T12:43:47;93926.81;;;26.63;56.03
11971;BME280;6045;42.682;23.294;2022-08-21T12:46:20;93926.63;;;26.43;56.67
11971;BME280;6045;42.682;23.294;2022-08-21T12:49:02;93917.97;;;26.29;57.68
11971;BME280;6045;42.682;23.294;2022-08-21T12:51:34;93916.59;;;26.35;57.87
11971;BME280;6045;42.682;23.294;2022-08-21T12:54:04;93922.56;;;26.25;57.59
11971;BME280;6045;42.682;23.294;2022-08-21T12:56:33;93927.00;;;26.18;56.69
11971;BME280;6045;42.682;23.294;2022-08-21T12:59:03;93925.63;;;25.88;57.17
11971;BME280;6045;42.682;23.294;2022-08-21T13:01:33;93926.41;;;25.76;57.75
11971;BME280;6045;42.682;23.294;2022-08-21T13:04:04;93921.38;;;25.66;59.07
11971;BME280;6045;42.682;23.294;2022-08-21T13:06:38;93919.34;;;25.75;59.87
11971;BME280;6045;42.682;23.294;2022-08-21T13:09:10;93913.53;;;25.76;59.13
11971;BME280;6045;42.682;23.294;2022-08-21T13:11:38;93915.25;;;25.81;58.25
11971;BME280;6045;42.682;23.294;2022-08-21T13:14:06;93923.34;;;25.77;59.17
11971;BME280;6045;42.682;23.294;2022-08-21T13:16:41;93916.28;;;25.76;59.33
11971;BME280;6045;42.682;23.294;2022-08-21T13:19:11;93912.38;;;25.77;59.75
11971;BME280;6045;42.682;23.294;2022-08-21T13:21:44;93902.56;;;25.89;59.89
11971;BME280;6045;42.682;23.294;2022-08-21T13:24:17;93900.63;;;26.01;59.48